Time;durP1;ratioP1;P1;durP2;ratioP2;P2;SDS_P1;SDS_P2;PMS_P1;PMS_P2;Temp;Humidity;BMP_temperature;BMP_pressure;BME280_temperature;BME280_humidity;BME280_pressure;Samples;Min_cycle;Max_cycle;Signal;HPM_P1;HPM_P2
2021/11/17 02:26:28;;;;;;;;;32.40;29.40;;;;;8.60;53.48;99352.66;6262368;27;97251;-67
2021/11/17 02:30:16;;;;;;;;;31.60;27.40;;;;;8.65;53.58;99339.47;6261434;27;96912;-64
2021/11/17 02:33:35;;;;;;;;;34.60;29.60;;;;;8.70;53.49;99334.31;6249104;27;97016;-64
2021/11/17 02:37:00;;;;;;;;;37.00;30.80;;;;;8.69;53.07;99327.31;6261784;27;96477;-66
2021/11/17 02:40:22;;;;;;;;;30.00;27.00;;;;;8.65;53.07;99327.88;6226074;27;99761;-65
2021/11/17 02:43:42;;;;;;;;;33.00;28.50;;;;;8.58;53.00;99319.78;6262002;27;97454;-67
2021/11/17 02:47:02;;;;;;;;;30.75;25.75;;;;;8.59;53.14;99324.16;6261782;27;97964;-66
2021/11/17 02:50:25;;;;;;;;;35.00;29.40;;;;;8.56;52.82;99324.53;6260933;27;96725;-63
2021/11/17 02:53:44;;;;;;;;;31.00;27.60;;;;;8.59;53.15;99328.69;6243362;27;97495;-63
2021/11/17 02:57:06;;;;;;;;;31.60;28.00;;;;;8.54;52.97;99321.22;6256680;27;97369;-66
2021/11/17 03:00:50;;;;;;;;;34.00;27.75;;;;;8.49;52.94;99326.34;6261534;27;97019;-65
2021/11/17 03:04:07;;;;;;;;;30.40;27.00;;;;;8.42;53.00;99324.66;6134278;28;96599;-68
2021/11/17 03:07:28;;;;;;;;;31.40;28.00;;;;;8.31;52.69;99319.84;6137127;27;96692;-64
2021/11/17 03:10:56;;;;;;;;;28.40;26.00;;;;;8.19;52.97;99331.09;6261324;27;97394;-65
2021/11/17 03:14:14;;;;;;;;;30.00;28.00;;;;;8.16;53.57;99336.03;6251198;27;97498;-66
2021/11/17 03:17:32;;;;;;;;;33.00;30.00;;;;;8.20;53.74;99337.28;6243407;27;97084;-66
2021/11/17 03:20:54;;;;;;;;;30.60;26.60;;;;;8.27;54.06;99335.47;6260470;27;96692;-67
2021/11/17 03:24:10;;;;;;;;;27.75;24.75;;;;;8.36;53.74;99323.56;6261726;27;97547;-65
2021/11/17 03:27:27;;;;;;;;;31.00;27.60;;;;;8.40;53.17;99321.34;6263541;27;96913;-67
2021/11/17 03:30:53;;;;;;;;;30.00;25.50;;;;;8.30;52.94;99312.81;6229234;27;98338;-67
2021/11/17 03:34:23;;;;;;;;;30.40;28.20;;;;;8.27;53.22;99314.81;6265593;27;96480;-65
2021/11/17 03:37:42;;;;;;;;;32.25;30.00;;;;;8.18;53.54;99290.97;6247763;27;96549;-63
2021/11/17 03:41:22;;;;;;;;;31.00;29.00;;;;;8.22;52.81;99313.72;6260063;27;96704;-65
2021/11/17 03:45:00;;;;;;;;;30.60;27.00;;;;;8.17;52.94;99310.81;6150335;27;98389;-63
2021/11/17 03:48:25;;;;;;;;;31.00;29.00;;;;;8.11;52.88;99312.41;6169821;27;97942;-65
2021/11/17 03:51:59;;;;;;;;;30.00;26.80;;;;;8.04;53.15;99306.19;6246502;27;97071;-64
2021/11/17 03:55:43;;;;;;;;;31.75;29.00;;;;;7.99;52.78;99308.63;6251566;27;96575;-66
2021/11/17 03:59:00;;;;;;;;;29.20;27.20;;;;;7.94;52.93;99294.13;6243521;27;97437;-65
2021/11/17 04:02:24;;;;;;;;;27.00;25.60;;;;;7.98;53.10;99300.75;6246638;27;97372;-65
2021/11/17 04:05:43;;;;;;;;;29.75;26.75;;;;;7.97;52.34;99294.53;6253215;27;97335;-65
2021/11/17 04:08:58;;;;;;;;;28.00;23.50;;;;;8.01;51.90;99293.16;6228735;27;97814;-65
2021/11/17 04:12:14;;;;;;;;;26.40;23.60;;;;;7.99;51.66;99300.56;6260834;27;96993;-66
2021/11/17 04:15:36;;;;;;;;;28.60;25.00;;;;;7.90;51.61;99301.72;6223438;27;97261;-66
2021/11/17 04:18:51;;;;;;;;;26.00;25.00;;;;;7.90;51.45;99311.63;6245817;27;97221;-67
2021/11/17 04:22:23;;;;;;;;;26.00;24.60;;;;;7.82;51.11;99300.00;6246409;27;97237;-66
2021/11/17 04:25:56;;;;;;;;;26.00;24.00;;;;;7.60;50.92;99295.69;6264248;27;96566;-66
2021/11/17 04:29:15;;;;;;;;;27.40;24.20;;;;;7.46;51.33;99303.81;6263847;27;97292;-66
2021/11/17 04:32:42;;;;;;;;;28.33;24.67;;;;;7.46;51.95;99301.97;6244534;27;99489;-66
2021/11/17 04:36:13;;;;;;;;;28.00;25.00;;;;;7.39;51.85;99311.78;6262058;27;96594;-67
2021/11/17 04:39:38;;;;;;;;;30.25;27.25;;;;;7.40;52.23;99300.03;6262825;27;97932;-68
2021/11/17 04:43:04;;;;;;;;;32.25;28.00;;;;;7.49;52.31;99298.06;6225974;27;96802;-66
2021/11/17 04:46:20;;;;;;;;;32.75;30.00;;;;;7.58;52.03;99303.09;6263144;27;97358;-66
2021/11/17 04:49:40;;;;;;;;;31.60;28.40;;;;;7.56;51.50;99299.78;6213272;27;99399;-68
2021/11/17 04:53:01;;;;;;;;;28.40;25.20;;;;;7.49;51.37;99306.09;6263265;27;97497;-68
2021/11/17 04:56:28;;;;;;;;;31.50;26.50;;;;;7.47;51.87;99303.63;6258691;27;97229;-68
2021/11/17 04:59:54;;;;;;;;;32.00;29.00;;;;;7.51;51.60;99296.03;6259463;27;96532;-66
2021/11/17 05:03:09;;;;;;;;;31.00;28.00;;;;;7.44;51.41;99295.94;6224415;27;96627;-66
2021/11/17 05:06:27;;;;;;;;;29.00;26.40;;;;;7.29;51.76;99296.00;6239712;27;96706;-69
2021/11/17 05:09:44;;;;;;;;;30.00;27.00;;;;;7.25;52.12;99302.78;6257549;27;97517;-65
2021/11/17 05:13:00;;;;;;;;;28.20;25.60;;;;;7.21;51.80;99296.13;6260758;27;97441;-64
2021/11/17 05:16:15;;;;;;;;;29.00;26.00;;;;;7.19;51.97;99291.97;6233240;27;96795;-66
2021/11/17 05:19:29;;;;;;;;;31.80;27.40;;;;;7.13;52.19;99287.38;6250162;27;96897;-64
2021/11/17 05:22:50;;;;;;;;;28.60;26.00;;;;;7.15;52.01;99282.66;6211750;27;98341;-64
2021/11/17 05:26:06;;;;;;;;;28.80;26.40;;;;;7.05;51.84;99290.16;6263355;27;97237;-67
2021/11/17 05:29:39;;;;;;;;;30.40;28.40;;;;;6.97;51.76;99293.81;6263526;27;96509;-65
2021/11/17 05:32:57;;;;;;;;;30.40;27.40;;;;;6.95;51.58;99285.09;6262403;27;97452;-64
2021/11/17 05:36:13;;;;;;;;;32.00;29.00;;;;;6.90;51.77;99285.69;6243369;27;98522;-64
2021/11/17 05:39:41;;;;;;;;;29.50;26.50;;;;;6.90;51.90;99287.53;6243230;27;98324;-67
2021/11/17 05:42:56;;;;;;;;;29.80;27.00;;;;;6.93;51.92;99288.00;6244286;27;97376;-67
2021/11/17 05:46:16;;;;;;;;;29.20;26.20;;;;;6.93;51.75;99292.53;6262899;27;97456;-63
2021/11/17 05:49:31;;;;;;;;;30.60;28.40;;;;;6.89;52.11;99293.94;6245710;27;97470;-65
2021/11/17 05:52:47;;;;;;;;;33.00;28.00;;;;;6.92;52.59;99297.06;6253545;27;96716;-64
2021/11/17 05:56:08;;;;;;;;;29.25;27.75;;;;;7.02;52.37;99301.28;6227798;27;97133;-64
2021/11/17 05:59:27;;;;;;;;;25.20;24.00;;;;;7.06;52.54;99297.19;6247998;27;96934;-63
2021/11/17 06:03:11;;;;;;;;;31.75;27.00;;;;;7.12;52.39;99307.19;6245203;27;97473;-66
2021/11/17 06:06:14;;;;;;;;;29.00;27.00;;;;;7.13;52.21;99309.66;6230701;27;97910;-64
2021/11/17 06:09:17;;;;;;;;;31.75;27.00;;;;;7.13;52.50;99316.88;6245833;27;97551;-65
2021/11/17 06:12:22;;;;;;;;;32.40;28.00;;;;;7.09;52.42;99323.63;6241056;27;96828;-64
2021/11/17 06:15:28;;;;;;;;;28.60;25.60;;;;;7.14;52.59;99322.03;6247030;27;97456;-63
2021/11/17 06:18:33;;;;;;;;;33.00;28.00;;;;;7.16;52.32;99327.22;6236606;27;99408;-67
2021/11/17 06:21:40;;;;;;;;;30.60;27.00;;;;;7.17;52.14;99326.22;6262155;27;97198;-67
2021/11/17 06:24:43;;;;;;;;;28.00;24.50;;;;;7.26;52.05;99327.75;6244097;27;97407;-67
2021/11/17 06:27:52;;;;;;;;;29.75;26.75;;;;;7.27;51.59;99324.06;6242862;27;97206;-65
2021/11/17 06:31:00;;;;;;;;;32.00;27.00;;;;;7.27;51.48;99321.38;6268171;27;97450;-66
2021/11/17 06:34:30;;;;;;;;;31.75;29.00;;;;;7.19;52.21;99314.25;6261277;27;96607;-66
2021/11/17 06:37:33;;;;;;;;;31.20;28.00;;;;;7.26;52.28;99322.38;6247548;27;96590;-67
2021/11/17 06:40:39;;;;;;;;;31.20;27.00;;;;;7.25;51.61;99329.59;6261760;27;96884;-63
2021/11/17 06:43:44;;;;;;;;;28.20;27.60;;;;;7.31;51.59;99328.84;6261908;27;96957;-66
2021/11/17 06:46:47;;;;;;;;;30.00;28.00;;;;;7.35;51.57;99321.25;6261344;27;97575;-63
2021/11/17 06:49:52;;;;;;;;;29.50;28.00;;;;;7.33;51.66;99323.31;6261402;27;97579;-68
2021/11/17 06:52:56;;;;;;;;;30.00;29.00;;;;;7.43;51.81;99321.09;6251572;27;96657;-68
2021/11/17 06:55:59;;;;;;;;;30.00;27.00;;;;;7.51;51.85;99318.31;6242821;27;98743;-64
2021/11/17 06:59:10;;;;;;;;;31.80;28.40;;;;;7.54;51.04;99320.59;6262490;27;97187;-65
2021/11/17 07:02:13;;;;;;;;;32.00;28.40;;;;;7.67;51.18;99320.72;6241193;27;97814;-68
2021/11/17 07:05:19;;;;;;;;;31.00;29.00;;;;;7.82;50.56;99321.47;6261250;27;96524;-62
2021/11/17 07:08:23;;;;;;;;;28.40;27.40;;;;;8.03;50.66;99319.78;6271134;27;97209;-68
2021/11/17 07:11:27;;;;;;;;;32.00;28.40;;;;;8.28;50.54;99315.63;6277351;27;97408;-66
2021/11/17 07:14:33;;;;;;;;;28.50;26.00;;;;;8.58;50.16;99317.09;6264841;27;96851;-65
2021/11/17 07:17:36;;;;;;;;;31.80;27.80;;;;;8.88;48.86;99320.34;6256223;27;98033;-66
2021/11/17 07:20:40;;;;;;;;;33.00;29.00;;;;;9.01;48.49;99323.09;6261818;27;97569;-64
2021/11/17 07:23:43;;;;;;;;;32.75;28.75;;;;;9.07;48.61;99327.69;6273495;27;97725;-62
2021/11/17 07:26:47;;;;;;;;;30.80;26.80;;;;;9.12;48.54;99330.59;6267701;27;97403;-62
2021/11/17 07:29:55;;;;;;;;;29.60;27.00;;;;;9.22;48.18;99332.91;6247846;27;98435;-67
2021/11/17 07:32:58;;;;;;;;;34.60;29.60;;;;;9.27;48.15;99332.28;6242716;27;96877;-66
2021/11/17 07:36:02;;;;;;;;;29.00;27.00;;;;;9.39;48.24;99336.88;6265893;27;97505;-64
2021/11/17 07:39:13;;;;;;;;;35.00;31.00;;;;;9.30;48.36;99323.81;6231929;27;98391;-66
2021/11/17 07:42:17;;;;;;;;;33.00;28.50;;;;;9.45;48.23;99341.44;6247099;27;97508;-66
2021/11/17 07:45:21;;;;;;;;;33.00;29.00;;;;;9.50;47.91;99341.66;6265039;27;97422;-66
2021/11/17 07:48:27;;;;;;;;;32.60;29.60;;;;;9.51;47.57;99340.63;6241532;27;97461;-66
2021/11/17 07:51:31;;;;;;;;;32.20;30.00;;;;;9.63;47.64;99335.47;6261750;27;97252;-68
2021/11/17 07:54:35;;;;;;;;;32.50;30.00;;;;;9.85;47.91;99338.81;6260074;27;96669;-64
2021/11/17 07:57:41;;;;;;;;;35.50;32.00;;;;;10.02;47.19;99334.66;6240583;27;97076;-66
2021/11/17 08:00:49;;;;;;;;;34.00;30.00;;;;;10.27;46.46;99334.91;6260292;27;97061;-67
2021/11/17 08:03:53;;;;;;;;;33.00;29.00;;;;;10.42;45.51;99332.81;6260313;27;97470;-65
2021/11/17 08:06:56;;;;;;;;;31.00;28.60;;;;;10.75;45.15;99330.88;6259644;27;97435;-67
2021/11/17 08:09:59;;;;;;;;;36.50;31.50;;;;;10.96;44.58;99337.88;6274061;27;96645;-63
2021/11/17 08:13:03;;;;;;;;;35.40;30.00;;;;;11.25;44.50;99331.09;6253337;27;97671;-66
2021/11/17 08:16:09;;;;;;;;;33.00;29.50;;;;;11.68;43.90;99329.38;6245826;27;96749;-67
2021/11/17 08:19:13;;;;;;;;;38.67;32.67;;;;;12.45;42.72;99330.88;6245937;27;97249;-67
2021/11/17 08:22:22;;;;;;;;;36.00;31.00;;;;;13.08;41.69;99327.06;6263964;27;97473;-64
2021/11/17 08:25:27;;;;;;;;;37.00;31.00;;;;;13.08;40.99;99287.28;6264219;27;96403;-65
2021/11/17 08:28:31;;;;;;;;;35.00;32.00;;;;;13.63;40.48;99325.94;6263777;27;97592;-65
2021/11/17 08:31:36;;;;;;;;;39.00;33.00;;;;;14.15;39.56;99326.16;6263780;27;97488;-63
2021/11/17 08:34:39;;;;;;;;;39.00;32.00;;;;;14.97;38.03;99318.81;6264110;27;97559;-68
2021/11/17 08:37:50;;;;;;;;;39.00;32.00;;;;;15.96;36.62;99323.78;6243855;27;97606;-65
2021/11/17 08:40:56;;;;;;;;;36.25;32.00;;;;;16.81;35.12;99317.22;6263187;27;96611;-64
2021/11/17 08:43:59;;;;;;;;;38.80;32.00;;;;;17.79;33.99;99326.31;6245765;27;97219;-68
2021/11/17 08:47:09;;;;;;;;;38.60;33.00;;;;;18.95;32.11;99317.13;6263760;27;96947;-67
2021/11/17 08:50:17;;;;;;;;;43.50;33.00;;;;;20.06;30.86;99330.31;6245139;27;97044;-67
2021/11/17 08:53:21;;;;;;;;;34.80;31.80;;;;;20.98;29.43;99325.56;6258572;27;97686;-67
2021/11/17 08:56:26;;;;;;;;;36.00;31.00;;;;;21.82;27.75;99322.72;6236196;28;97961;-70
2021/11/17 08:59:31;;;;;;;;;33.60;31.00;;;;;22.40;26.97;99331.09;6259704;27;97439;-66
2021/11/17 09:02:40;;;;;;;;;37.40;32.00;;;;;23.08;26.22;99325.47;6263077;27;96598;-64
2021/11/17 09:05:48;;;;;;;;;37.20;32.80;;;;;23.35;25.47;99316.66;6245112;27;97673;-66
2021/11/17 09:08:52;;;;;;;;;34.75;30.00;;;;;23.57;25.40;99317.72;6263380;27;97213;-63
2021/11/17 09:11:55;;;;;;;;;38.00;32.00;;;;;23.93;24.79;99322.72;6260908;27;96875;-68
2021/11/17 09:14:58;;;;;;;;;38.00;32.00;;;;;24.22;24.51;99317.06;6244436;27;97913;-65
2021/11/17 09:18:04;;;;;;;;;38.00;32.00;;;;;24.72;24.02;99320.88;6246433;27;96847;-65
2021/11/17 09:21:12;;;;;;;;;38.60;33.00;;;;;24.77;23.79;99316.09;6263191;27;97075;-64
2021/11/17 09:24:17;;;;;;;;;37.50;32.50;;;;;25.08;23.82;99310.81;6252887;27;97482;-64
2021/11/17 09:27:21;;;;;;;;;40.40;32.00;;;;;25.32;22.85;99296.81;6260375;27;97072;-66
2021/11/17 09:30:26;;;;;;;;;36.80;32.00;;;;;25.58;23.18;99305.38;6262729;27;98293;-65
2021/11/17 09:33:31;;;;;;;;;38.40;33.00;;;;;25.87;22.54;99303.06;6262493;27;97928;-70
2021/11/17 09:36:37;;;;;;;;;37.60;32.00;;;;;26.13;22.49;99306.03;6269059;27;97056;-65
2021/11/17 09:39:42;;;;;;;;;38.40;33.00;;;;;26.20;22.18;99301.69;6266343;27;97667;-65
2021/11/17 09:42:45;;;;;;;;;43.00;33.00;;;;;26.24;22.10;99302.72;6269743;27;97476;-64
2021/11/17 09:45:52;;;;;;;;;39.60;32.00;;;;;26.41;22.04;99307.56;6248903;27;97210;-65
2021/11/17 09:49:00;;;;;;;;;46.60;36.00;;;;;26.60;22.27;99301.81;6241736;27;98655;-69
2021/11/17 09:52:09;;;;;;;;;40.00;35.00;;;;;26.09;22.71;99297.56;6261803;27;97585;-68
2021/11/17 09:55:20;;;;;;;;;39.80;33.20;;;;;26.12;23.07;99298.88;6263105;27;97029;-68
2021/11/17 09:58:27;;;;;;;;;42.40;34.00;;;;;26.26;22.62;99281.13;6257031;27;97019;-64
2021/11/17 10:01:33;;;;;;;;;39.80;34.80;;;;;26.69;22.09;99291.59;6266783;27;96966;-63
2021/11/17 10:04:43;;;;;;;;;41.00;33.75;;;;;26.71;21.55;99287.41;6262223;27;97361;-65
2021/11/17 10:11:48;;;;;;;;;42.40;35.00;;;;;27.10;21.51;99281.06;6260031;27;96929;-66
2021/11/17 10:14:58;;;;;;;;;44.50;36.00;;;;;27.15;21.41;99238.59;6231169;27;96682;-64
2021/11/17 10:18:24;;;;;;;;;43.50;35.50;;;;;27.65;21.07;99261.19;6256810;27;97385;-66
2021/11/17 10:21:36;;;;;;;;;41.00;34.00;;;;;27.84;21.06;99263.63;6256501;27;98180;-64
2021/11/17 10:24:46;;;;;;;;;45.00;35.00;;;;;27.97;20.85;99257.91;6256827;27;96612;-66
2021/11/17 10:27:57;;;;;;;;;41.80;35.80;;;;;28.03;20.66;99264.09;6243234;27;97473;-63
2021/11/17 10:31:10;;;;;;;;;43.00;35.00;;;;;27.86;20.89;99267.69;6249072;27;97505;-65
2021/11/17 10:34:18;;;;;;;;;43.33;35.67;;;;;27.75;20.75;99262.81;6245691;27;97871;-66
2021/11/17 10:37:31;;;;;;;;;43.40;36.00;;;;;27.45;21.39;99262.59;6255647;27;97301;-66
2021/11/17 10:40:45;;;;;;;;;42.40;35.00;;;;;27.17;21.31;99259.25;6249483;27;97579;-67
2021/11/17 10:43:57;;;;;;;;;43.60;35.60;;;;;26.53;22.06;99255.28;6252986;27;97125;-67
2021/11/17 10:47:00;;;;;;;;;42.00;35.00;;;;;26.05;22.43;99257.03;6251879;27;96655;-64
2021/11/17 10:50:15;;;;;;;;;42.00;35.00;;;;;25.91;22.69;99254.34;6249088;27;97372;-65
2021/11/17 10:53:31;;;;;;;;;44.20;35.80;;;;;25.64;22.95;99258.03;6249703;27;96620;-70
2021/11/17 10:56:35;;;;;;;;;44.25;35.00;;;;;25.45;23.34;99240.78;6245352;27;96625;-65
2021/11/17 10:59:40;;;;;;;;;44.40;36.40;;;;;25.54;23.40;99246.38;6252602;27;96732;-64
2021/11/17 11:02:45;;;;;;;;;42.33;35.00;;;;;25.41;23.39;99240.56;6249719;27;97022;-70
2021/11/17 11:05:51;;;;;;;;;46.00;37.75;;;;;25.19;23.51;99237.75;6245817;27;96911;-67
2021/11/17 11:09:00;;;;;;;;;45.00;37.50;;;;;25.09;23.57;99231.63;6256833;27;97443;-67
2021/11/17 11:12:05;;;;;;;;;49.00;38.25;;;;;24.84;23.93;99239.28;6280262;27;97400;-65
2021/11/17 11:15:20;;;;;;;;;48.80;38.80;;;;;24.64;24.19;99230.59;6278524;27;97527;-66
2021/11/17 11:18:28;;;;;;;;;48.50;39.50;;;;;24.55;24.50;99230.47;6262416;27;97721;-63
2021/11/17 11:21:55;;;;;;;;;51.80;41.80;;;;;24.47;24.34;99226.50;6270350;27;96667;-63
2021/11/17 11:25:34;;;;;;;;;55.60;43.00;;;;;24.08;24.63;99226.09;6246245;27;96629;-66
2021/11/17 11:29:13;;;;;;;;;53.75;43.25;;;;;24.13;24.88;99217.75;6255434;27;97138;-66
2021/11/17 11:32:48;;;;;;;;;58.40;45.20;;;;;24.08;25.40;99213.13;6229676;27;97504;-67
2021/11/17 11:36:34;;;;;;;;;60.00;46.00;;;;;23.99;25.34;99205.88;6132574;28;97167;-64
2021/11/17 11:39:44;;;;;;;;;58.00;46.00;;;;;24.22;25.00;99204.94;6101185;28;97974;-70
2021/11/17 11:43:23;;;;;;;;;55.20;44.40;;;;;24.52;24.84;99206.28;6133124;28;98047;-70
2021/11/17 11:46:33;;;;;;;;;53.25;42.00;;;;;24.66;24.64;99209.88;6123435;28;96908;-69
2021/11/17 11:49:38;;;;;;;;;56.00;44.00;;;;;24.78;24.68;99204.66;6129303;28;97065;-66
2021/11/17 11:53:00;;;;;;;;;52.00;42.00;;;;;24.61;24.21;99209.97;6125497;28;96684;-66
2021/11/17 11:56:28;;;;;;;;;49.60;42.00;;;;;24.33;24.81;99202.81;6123082;28;96997;-68
2021/11/17 11:59:32;;;;;;;;;53.20;41.60;;;;;24.23;24.76;99203.00;6131198;28;97877;-67
2021/11/17 12:02:40;;;;;;;;;52.75;41.75;;;;;24.06;24.93;99203.53;6107865;28;96950;-64
2021/11/17 12:05:47;;;;;;;;;52.00;41.00;;;;;24.00;25.12;99215.75;6112258;28;99506;-66
2021/11/17 12:08:57;;;;;;;;;50.20;41.20;;;;;23.90;25.49;99211.22;6152791;27;97524;-66
2021/11/17 12:12:03;;;;;;;;;53.00;41.75;;;;;23.86;25.20;99212.13;6248666;27;97566;-68
2021/11/17 12:15:21;;;;;;;;;51.00;42.00;;;;;23.15;26.23;99202.19;6263544;27;97453;-67
2021/11/17 12:18:27;;;;;;;;;50.40;41.00;;;;;22.63;27.25;99203.91;6256882;27;97416;-67
2021/11/17 12:21:48;;;;;;;;;51.20;40.80;;;;;22.01;28.09;99207.59;6237885;27;96876;-65
2021/11/17 12:25:09;;;;;;;;;53.00;42.00;;;;;21.47;29.20;99213.19;6226578;27;97101;-68
2021/11/17 12:28:17;;;;;;;;;52.00;41.00;;;;;20.97;29.91;99208.78;6252205;27;96744;-68
2021/11/17 12:31:24;;;;;;;;;51.80;41.00;;;;;20.29;30.07;99184.63;6258362;27;97185;-68
2021/11/17 12:34:32;;;;;;;;;49.80;40.00;;;;;19.73;30.99;99199.50;6247083;27;97218;-67
2021/11/17 12:37:45;;;;;;;;;52.00;40.00;;;;;19.27;31.93;99199.41;6225059;27;97552;-67
2021/11/17 12:40:58;;;;;;;;;52.00;42.00;;;;;18.89;32.60;99195.22;6234213;27;97533;-64
2021/11/17 12:44:06;;;;;;;;;53.00;42.20;;;;;18.51;33.62;99199.16;6248703;27;97542;-64
2021/11/17 12:47:13;;;;;;;;;53.00;42.00;;;;;18.27;34.13;99199.81;6230890;27;97497;-71
2021/11/17 12:50:23;;;;;;;;;55.00;42.00;;;;;18.18;34.20;99191.28;6248865;27;97146;-68
2021/11/17 12:53:29;;;;;;;;;53.00;43.00;;;;;18.15;34.72;99184.47;6243688;27;96753;-68
2021/11/17 12:56:53;;;;;;;;;59.60;44.60;;;;;18.22;34.77;99186.97;6247202;27;97431;-68
2021/11/17 13:00:03;;;;;;;;;59.40;46.20;;;;;18.30;34.47;99189.19;6232064;27;97505;-65
2021/11/17 13:03:08;;;;;;;;;57.00;44.00;;;;;18.15;34.71;99195.38;6250611;27;97302;-65
2021/11/17 13:06:22;;;;;;;;;59.40;46.00;;;;;17.84;34.82;99203.63;6247423;27;96617;-66
2021/11/17 13:09:30;;;;;;;;;56.60;45.00;;;;;17.50;35.82;99192.94;6252479;27;96722;-66
2021/11/17 13:12:36;;;;;;;;;56.00;44.00;;;;;17.25;36.33;99184.53;6250344;27;97695;-63
2021/11/17 13:15:44;;;;;;;;;56.20;44.00;;;;;17.12;36.49;99207.56;6259323;27;97196;-64
2021/11/17 13:18:59;;;;;;;;;57.00;44.00;;;;;16.90;36.80;99193.16;6260403;27;97730;-63
2021/11/17 13:22:22;;;;;;;;;55.00;43.00;;;;;16.59;37.32;99196.59;6255413;27;97286;-65
2021/11/17 13:25:28;;;;;;;;;53.00;42.00;;;;;16.29;37.91;99188.81;6243832;27;97142;-67
2021/11/17 13:28:37;;;;;;;;;53.00;42.33;;;;;16.09;38.42;99193.94;6252807;27;96950;-63
2021/11/17 13:31:40;;;;;;;;;51.00;42.00;;;;;15.89;38.97;99189.84;6253537;27;97584;-65
2021/11/17 13:34:45;;;;;;;;;54.00;42.40;;;;;15.71;39.33;99197.44;6249694;27;97066;-63
2021/11/17 13:37:50;;;;;;;;;53.00;42.00;;;;;15.54;39.47;99194.75;6253410;27;96755;-68
2021/11/17 13:40:57;;;;;;;;;50.60;39.40;;;;;15.41;39.88;99192.28;6250608;27;98070;-68
2021/11/17 13:44:01;;;;;;;;;53.40;43.00;;;;;15.25;40.37;99177.63;6248384;27;97254;-69
2021/11/17 13:47:08;;;;;;;;;54.40;41.00;;;;;15.18;40.56;99194.09;6235651;27;97534;-67
2021/11/17 13:50:13;;;;;;;;;52.00;41.00;;;;;15.08;40.96;99190.34;6247940;27;97190;-65
2021/11/17 13:53:20;;;;;;;;;52.00;40.60;;;;;15.01;41.01;99203.25;6244465;27;97403;-70
2021/11/17 13:56:29;;;;;;;;;50.00;40.00;;;;;14.89;41.42;99199.75;6256178;27;97449;-66
2021/11/17 13:59:32;;;;;;;;;53.40;43.20;;;;;14.77;41.94;99198.97;6251896;27;97300;-65
2021/11/17 14:02:36;;;;;;;;;55.50;42.50;;;;;14.70;42.01;99201.84;6243647;27;96545;-69
2021/11/17 14:05:41;;;;;;;;;53.00;42.00;;;;;14.63;42.17;99199.25;6229347;27;98189;-68
2021/11/17 14:08:46;;;;;;;;;55.40;43.60;;;;;14.52;42.46;99200.09;6240414;27;96783;-67
2021/11/17 14:11:50;;;;;;;;;58.00;44.00;;;;;14.42;42.80;99207.19;6258371;27;98190;-67
2021/11/17 14:14:53;;;;;;;;;59.00;46.00;;;;;14.33;43.09;99193.97;6256442;27;98175;-66
2021/11/17 14:17:57;;;;;;;;;63.00;46.00;;;;;14.23;43.43;99201.88;6258865;27;97460;-67
2021/11/17 14:21:02;;;;;;;;;62.00;48.00;;;;;14.09;43.88;99191.53;6240064;27;97246;-67
2021/11/17 14:24:07;;;;;;;;;62.50;48.00;;;;;14.00;44.21;99198.38;6232245;28;98420;-67
2021/11/17 14:27:13;;;;;;;;;63.40;47.40;;;;;13.95;44.41;99190.13;6241741;27;97395;-67
2021/11/17 14:30:25;;;;;;;;;61.25;48.00;;;;;13.84;44.62;99181.75;6247386;27;97460;-66
2021/11/17 14:33:32;;;;;;;;;62.50;48.00;;;;;13.81;44.90;99184.13;6211461;27;96882;-63
2021/11/17 14:36:40;;;;;;;;;60.00;48.00;;;;;13.78;45.02;99185.41;6240772;27;96781;-65
2021/11/17 14:39:45;;;;;;;;;63.00;48.00;;;;;13.78;45.11;99171.84;6232599;27;96720;-65
2021/11/17 14:42:49;;;;;;;;;60.60;46.00;;;;;13.80;45.02;99166.19;6240114;27;97218;-64
2021/11/17 14:45:53;;;;;;;;;58.75;46.75;;;;;13.81;44.96;99168.69;6239457;27;97562;-69
2021/11/17 14:48:59;;;;;;;;;60.00;46.40;;;;;13.80;45.23;99171.63;6225135;27;98448;-68
2021/11/17 14:52:07;;;;;;;;;61.50;46.00;;;;;13.79;45.46;99176.22;6243050;27;97082;-65
2021/11/17 14:55:15;;;;;;;;;58.20;46.00;;;;;13.78;45.54;99174.56;6254691;27;96955;-64
2021/11/17 14:58:19;;;;;;;;;58.25;45.00;;;;;13.80;45.53;99171.63;6259693;27;96738;-64
2021/11/17 15:01:25;;;;;;;;;61.40;46.80;;;;;13.79;45.69;99169.97;6255213;27;96949;-65
2021/11/17 15:04:34;;;;;;;;;60.20;47.20;;;;;13.77;45.86;99170.22;6247778;27;98116;-63
2021/11/17 15:07:38;;;;;;;;;63.40;48.00;;;;;13.70;46.21;99179.50;6257104;27;97909;-68
2021/11/17 15:10:43;;;;;;;;;65.00;49.00;;;;;13.72;45.95;99169.28;6235841;27;98415;-66
2021/11/17 15:13:47;;;;;;;;;60.20;46.00;;;;;13.74;46.10;99169.84;6257957;27;96506;-68
2021/11/17 15:16:51;;;;;;;;;62.40;48.40;;;;;13.77;45.95;99163.97;6241810;27;97462;-66
2021/11/17 15:19:55;;;;;;;;;61.20;47.80;;;;;13.78;45.92;99162.91;6252396;27;97679;-65
2021/11/17 15:22:59;;;;;;;;;62.00;48.25;;;;;13.81;45.82;99171.41;6235037;27;97310;-66
2021/11/17 15:26:04;;;;;;;;;62.60;47.40;;;;;13.81;45.95;99170.56;6215498;27;99949;-64
2021/11/17 15:29:08;;;;;;;;;60.00;48.00;;;;;13.81;46.22;99165.16;6255656;27;97816;-66
2021/11/17 15:32:11;;;;;;;;;62.40;48.60;;;;;13.85;45.81;99167.16;6220814;27;97344;-66
2021/11/17 15:35:17;;;;;;;;;63.80;50.00;;;;;13.86;46.10;99174.22;6249570;27;97023;-69
2021/11/17 15:38:21;;;;;;;;;63.00;50.00;;;;;13.85;45.86;99171.75;6241028;27;97490;-66
2021/11/17 15:41:27;;;;;;;;;61.40;48.00;;;;;13.79;46.23;99173.50;6258973;27;97064;-65
2021/11/17 15:44:30;;;;;;;;;63.40;50.00;;;;;13.76;46.41;99170.44;6249335;27;97158;-67
2021/11/17 15:47:33;;;;;;;;;64.40;50.00;;;;;13.76;46.32;99176.69;6231478;27;99697;-69
2021/11/17 15:50:41;;;;;;;;;64.00;50.00;;;;;13.77;46.40;99172.09;6256563;27;97564;-69
2021/11/17 15:53:45;;;;;;;;;63.60;49.00;;;;;13.75;46.54;99175.03;6259954;27;96608;-68
2021/11/17 15:56:54;;;;;;;;;63.50;50.25;;;;;13.77;46.45;99163.97;6252857;27;97315;-68
2021/11/17 15:59:58;;;;;;;;;63.40;48.00;;;;;13.76;46.61;99173.16;6254796;27;96672;-63
2021/11/17 16:03:03;;;;;;;;;65.00;48.00;;;;;13.73;46.57;99165.50;6240159;27;97334;-68
2021/11/17 16:06:07;;;;;;;;;62.00;48.80;;;;;13.74;46.63;99159.00;6241819;27;97480;-68
2021/11/17 16:09:11;;;;;;;;;62.00;48.00;;;;;13.75;46.76;99160.66;6254385;27;97455;-65
2021/11/17 16:12:15;;;;;;;;;63.75;49.00;;;;;13.75;46.71;99155.25;6257426;27;97526;-65
2021/11/17 16:15:20;;;;;;;;;61.40;47.40;;;;;13.82;46.69;99155.97;6239400;27;97424;-66
2021/11/17 16:18:23;;;;;;;;;61.00;48.00;;;;;13.80;46.80;99160.78;6243522;27;97457;-65
2021/11/17 16:21:27;;;;;;;;;59.00;45.00;;;;;13.84;46.58;99172.78;6242673;27;97895;-68
2021/11/17 16:27:53;;;;;;;;;56.80;44.00;;;;;13.62;46.97;99167.16;6246125;27;97199;-68
2021/11/17 16:30:57;;;;;;;;;56.00;43.40;;;;;13.54;46.98;99172.06;6252705;27;97125;-66
2021/11/17 16:34:01;;;;;;;;;55.20;44.00;;;;;13.50;47.15;99169.00;6247583;27;96999;-67
2021/11/17 16:37:08;;;;;;;;;55.50;43.50;;;;;13.52;47.20;99168.78;6224813;27;97144;-67
2021/11/17 16:40:15;;;;;;;;;55.50;43.50;;;;;13.43;47.01;99158.31;6250461;27;96691;-65
2021/11/17 16:43:20;;;;;;;;;55.33;43.00;;;;;13.51;47.13;99167.13;6237499;27;97183;-67
2021/11/17 16:46:24;;;;;;;;;53.33;42.33;;;;;13.50;47.17;99181.72;6252739;27;96754;-67
2021/11/17 16:49:45;;;;;;;;;55.00;43.80;;;;;13.50;47.22;99182.53;6240877;27;98121;-65
2021/11/17 16:52:50;;;;;;;;;55.00;44.00;;;;;13.52;47.20;99182.31;6225054;27;97746;-70
2021/11/17 16:56:15;;;;;;;;;55.20;44.00;;;;;13.47;47.43;99187.63;6244214;27;97045;-70
2021/11/17 16:59:20;;;;;;;;;56.00;45.00;;;;;13.43;47.44;99195.38;6226570;27;97705;-65
2021/11/17 17:02:24;;;;;;;;;59.00;45.50;;;;;13.42;47.32;99183.72;6224252;27;98493;-64
2021/11/17 17:05:28;;;;;;;;;58.00;44.20;;;;;13.40;47.59;99187.72;6246359;27;97490;-64
2021/11/17 17:08:32;;;;;;;;;56.40;45.40;;;;;13.41;47.43;99187.47;6226559;27;98348;-64
2021/11/17 17:11:36;;;;;;;;;56.00;44.00;;;;;13.44;47.63;99192.44;6245909;27;97256;-64
2021/11/17 17:14:41;;;;;;;;;57.00;45.00;;;;;13.40;47.49;99191.25;6222279;27;98424;-65